Time;durP1;ratioP1;P1;durP2;ratioP2;P2;SDS_P1;SDS_P2;PMS_P1;PMS_P2;Temp;Humidity;BMP_temperature;BMP_pressure;BME280_temperature;BME280_humidity;BME280_pressure;Samples;Min_cycle;Max_cycle;Signal;HPM_P1;HPM_P2
2023/09/09 00:00:49;;;;;;;23.20;21.05;;;21.90;99.90;;;;;;5049929;28;20021;-76
2023/09/09 00:03:15;;;;;;;21.10;19.30;;;21.90;99.90;;;;;;5048984;28;20024;-76
2023/09/09 00:05:41;;;;;;;22.25;20.50;;;21.80;99.90;;;;;;5049929;28;20028;-75
2023/09/09 00:08:06;;;;;;;21.10;19.30;;;21.80;99.90;;;;;;5049464;28;20052;-76
2023/09/09 00:10:37;;;;;;;21.17;19.25;;;21.80;99.90;;;;;;5047679;28;20039;-76
2023/09/09 00:13:04;;;;;;;22.80;20.90;;;21.80;99.90;;;;;;5051940;28;20165;-76
2023/09/09 00:15:31;;;;;;;21.02;19.10;;;21.80;99.90;;;;;;5049445;28;20048;-76
2023/09/09 00:17:57;;;;;;;20.90;19.10;;;21.70;99.90;;;;;;5048557;28;20061;-76
2023/09/09 00:20:36;;;;;;;20.58;18.88;;;21.80;99.90;;;;;;5048198;28;20044;-75
2023/09/09 00:23:09;;;;;;;20.92;18.98;;;21.70;99.90;;;;;;5049135;28;20029;-75
2023/09/09 00:25:38;;;;;;;19.98;18.17;;;21.70;99.90;;;;;;5049379;28;20036;-76
2023/09/09 00:28:04;;;;;;;21.40;19.23;;;21.70;99.90;;;;;;5048805;28;20104;-75
2023/09/09 00:30:30;;;;;;;21.35;19.38;;;21.70;99.90;;;;;;5048965;28;20516;-76
2023/09/09 00:32:58;;;;;;;20.60;18.83;;;21.60;99.90;;;;;;5049397;28;20054;-75
2023/09/09 00:35:24;;;;;;;21.27;19.52;;;21.70;99.90;;;;;;5049044;28;20494;-76
2023/09/09 00:37:49;;;;;;;21.38;19.60;;;21.60;99.90;;;;;;5049164;28;20047;-76
2023/09/09 00:40:15;;;;;;;20.33;18.52;;;21.60;99.90;;;;;;5048749;28;20029;-76
2023/09/09 00:42:41;;;;;;;22.40;20.35;;;21.60;99.90;;;;;;5049020;28;20081;-76
2023/09/09 00:45:06;;;;;;;20.25;18.60;;;21.60;99.90;;;;;;5048742;28;20032;-76
2023/09/09 00:47:33;;;;;;;21.80;19.90;;;21.50;99.90;;;;;;5047148;28;20386;-76
2023/09/09 00:49:59;;;;;;;23.95;20.50;;;21.50;99.90;;;;;;5048699;28;20040;-75
2023/09/09 00:52:26;;;;;;;22.63;20.63;;;21.50;99.90;;;;;;5050462;28;20559;-76
2023/09/09 00:54:52;;;;;;;19.42;17.77;;;21.50;99.90;;;;;;5047446;28;20047;-75
2023/09/09 00:57:18;;;;;;;20.73;19.05;;;21.40;99.90;;;;;;5048507;28;20032;-76
2023/09/09 00:59:44;;;;;;;21.52;19.50;;;21.40;99.90;;;;;;5057382;28;20031;-76
2023/09/09 01:02:10;;;;;;;20.15;18.55;;;21.40;99.90;;;;;;5047930;28;20027;-76
2023/09/09 01:04:36;;;;;;;21.05;19.35;;;21.40;99.90;;;;;;5052032;28;20100;-75
2023/09/09 01:07:02;;;;;;;20.27;18.42;;;21.40;99.90;;;;;;5051126;28;20039;-76
2023/09/09 01:09:29;;;;;;;20.10;18.23;;;21.40;99.90;;;;;;5051269;28;20025;-76
2023/09/09 01:11:55;;;;;;;20.65;19.02;;;21.40;99.90;;;;;;5050870;28;20017;-76
2023/09/09 01:14:21;;;;;;;19.48;17.83;;;21.30;99.90;;;;;;5051523;28;20411;-76
2023/09/09 01:16:50;;;;;;;19.40;17.73;;;21.30;99.90;;;;;;5052132;28;20064;-76
2023/09/09 01:19:18;;;;;;;21.08;19.23;;;21.30;99.90;;;;;;5051497;28;20035;-77
2023/09/09 01:21:45;;;;;;;21.10;19.23;;;21.30;99.90;;;;;;5044139;28;20438;-76
2023/09/09 01:24:15;;;;;;;21.73;19.83;;;21.30;99.90;;;;;;5070664;28;20542;-76
2023/09/09 01:26:42;;;;;;;18.65;16.95;;;21.30;99.90;;;;;;5071188;28;20055;-76
2023/09/09 01:29:08;;;;;;;21.33;19.63;;;21.20;99.90;;;;;;5069545;28;20039;-76
2023/09/09 01:31:33;;;;;;;20.38;18.58;;;21.20;99.90;;;;;;5057734;28;20469;-76
2023/09/09 01:33:59;;;;;;;22.27;20.40;;;21.10;99.90;;;;;;5068507;28;20037;-76
2023/09/09 01:36:24;;;;;;;20.55;18.65;;;21.10;99.90;;;;;;5070225;28;20161;-76
2023/09/09 01:38:50;;;;;;;21.23;19.40;;;21.10;99.90;;;;;;5069437;28;20477;-75
2023/09/09 01:41:16;;;;;;;20.45;18.85;;;21.10;99.90;;;;;;5069430;28;20517;-76
2023/09/09 01:43:41;;;;;;;20.42;18.73;;;21.00;99.90;;;;;;5068900;28;20033;-76
2023/09/09 01:46:07;;;;;;;20.65;19.00;;;21.10;99.90;;;;;;5060770;28;20025;-76
2023/09/09 01:48:32;;;;;;;21.33;19.35;;;21.00;99.90;;;;;;5068921;28;20481;-75
2023/09/09 01:50:58;;;;;;;19.67;17.85;;;21.00;99.90;;;;;;5069818;28;20025;-76
2023/09/09 01:53:23;;;;;;;22.17;20.17;;;21.00;99.90;;;;;;5067089;28;20193;-75
2023/09/09 01:55:49;;;;;;;20.17;18.40;;;20.90;99.90;;;;;;5063205;28;20049;-77
2023/09/09 01:58:15;;;;;;;22.27;20.20;;;20.90;99.90;;;;;;5068466;28;20488;-77
2023/09/09 02:00:41;;;;;;;21.35;19.42;;;20.90;99.90;;;;;;5069726;28;20024;-76
2023/09/09 02:03:07;;;;;;;20.35;18.45;;;20.90;99.90;;;;;;5068390;28;20020;-76
2023/09/09 02:05:33;;;;;;;19.95;18.23;;;20.90;99.90;;;;;;5069764;28;20078;-77
2023/09/09 02:07:59;;;;;;;19.17;17.58;;;20.80;99.90;;;;;;5068405;28;20025;-76
2023/09/09 02:10:24;;;;;;;22.15;20.02;;;20.80;99.90;;;;;;5068809;28;20416;-77
2023/09/09 02:12:50;;;;;;;20.98;19.00;;;20.80;99.90;;;;;;5067235;28;20025;-76
2023/09/09 02:15:15;;;;;;;21.52;19.63;;;20.80;99.90;;;;;;5061050;28;20016;-76
2023/09/09 02:17:41;;;;;;;18.65;17.10;;;20.80;99.90;;;;;;5063381;28;20025;-76
2023/09/09 02:20:09;;;;;;;18.63;17.08;;;20.70;99.90;;;;;;5043537;28;20016;-76
2023/09/09 02:22:35;;;;;;;18.17;16.48;;;20.70;99.90;;;;;;5069372;28;20536;-76
2023/09/09 02:25:00;;;;;;;18.92;17.23;;;20.70;99.90;;;;;;5069603;28;20036;-76
2023/09/09 02:27:26;;;;;;;19.40;17.73;;;20.70;99.90;;;;;;5068957;28;20021;-76
2023/09/09 02:29:51;;;;;;;18.83;17.33;;;20.60;99.90;;;;;;5038868;28;20025;-76
2023/09/09 02:32:18;;;;;;;21.52;19.45;;;20.60;99.90;;;;;;5053822;28;20074;-76
2023/09/09 02:34:44;;;;;;;19.35;17.75;;;20.60;99.90;;;;;;5048147;28;20029;-76
2023/09/09 02:37:17;;;;;;;20.20;18.50;;;20.60;99.90;;;;;;5050380;28;20044;-76
2023/09/09 02:39:44;;;;;;;19.63;18.13;;;20.60;99.90;;;;;;5049449;28;20086;-76
2023/09/09 02:42:15;;;;;;;18.38;16.88;;;20.60;99.90;;;;;;5050526;28;20044;-77
2023/09/09 02:44:41;;;;;;;17.40;16.02;;;20.50;99.90;;;;;;5050564;28;20434;-76
2023/09/09 02:47:08;;;;;;;18.30;16.80;;;20.50;99.90;;;;;;5051038;28;20017;-76
2023/09/09 02:49:35;;;;;;;19.48;17.67;;;20.50;99.90;;;;;;5050860;28;20166;-77
2023/09/09 02:52:01;;;;;;;17.88;16.27;;;20.50;99.90;;;;;;5050609;28;20398;-77
2023/09/09 02:54:26;;;;;;;18.95;17.23;;;20.40;99.90;;;;;;5049974;28;20025;-76
2023/09/09 02:56:52;;;;;;;17.90;16.25;;;20.50;99.90;;;;;;5050430;28;20968;-77
2023/09/09 02:59:19;;;;;;;18.88;17.27;;;20.40;99.90;;;;;;5050685;28;20607;-76
2023/09/09 03:01:44;;;;;;;17.90;16.33;;;20.40;99.90;;;;;;5050969;28;20028;-76
2023/09/09 03:04:12;;;;;;;19.52;17.73;;;20.40;99.90;;;;;;5049374;28;20389;-76
2023/09/09 03:06:37;;;;;;;19.02;17.30;;;20.40;99.90;;;;;;5050136;28;20043;-76
2023/09/09 03:09:04;;;;;;;17.63;16.13;;;20.30;99.90;;;;;;5049790;28;20096;-76
2023/09/09 03:11:30;;;;;;;17.35;15.95;;;20.30;99.90;;;;;;5047631;28;20442;-76
2023/09/09 03:13:56;;;;;;;18.83;17.27;;;20.30;99.90;;;;;;5050055;28;20104;-76
2023/09/09 03:16:21;;;;;;;19.52;18.02;;;20.30;99.90;;;;;;5049474;28;20135;-76
2023/09/09 03:18:47;;;;;;;18.23;16.63;;;20.20;99.90;;;;;;5058662;28;20087;-76
2023/09/09 03:21:12;;;;;;;21.02;19.20;;;20.20;99.90;;;;;;5066248;28;20103;-75
2023/09/09 03:23:38;;;;;;;20.92;19.10;;;20.20;99.90;;;;;;5060260;28;20033;-76
2023/09/09 03:26:04;;;;;;;19.40;17.67;;;20.20;99.90;;;;;;5063686;28;20021;-75
2023/09/09 03:28:30;;;;;;;20.90;19.05;;;20.20;99.90;;;;;;5062412;28;20063;-76
2023/09/09 03:30:58;;;;;;;22.30;20.20;;;20.20;99.90;;;;;;5063304;28;20049;-75
2023/09/09 03:33:24;;;;;;;23.35;21.27;;;20.10;99.90;;;;;;5068339;28;20025;-75
2023/09/09 03:35:50;;;;;;;20.70;18.73;;;20.10;99.90;;;;;;5064848;28;20033;-76
2023/09/09 03:38:15;;;;;;;20.70;19.05;;;20.10;99.90;;;;;;5053249;28;20398;-75
2023/09/09 03:40:44;;;;;;;22.38;20.33;;;20.10;99.90;;;;;;5064304;28;20025;-75
2023/09/09 03:43:11;;;;;;;22.13;20.35;;;20.10;99.90;;;;;;5067184;28;20040;-75
2023/09/09 03:45:36;;;;;;;22.38;20.42;;;20.00;99.90;;;;;;5070441;28;20024;-75
2023/09/09 03:48:04;;;;;;;20.60;18.60;;;20.00;99.90;;;;;;5072219;28;20031;-76
2023/09/09 03:50:30;;;;;;;21.05;19.25;;;20.00;99.90;;;;;;5071933;28;20028;-75
2023/09/09 03:52:55;;;;;;;22.08;20.08;;;20.00;99.90;;;;;;5068479;28;20037;-75
2023/09/09 03:55:21;;;;;;;23.35;21.20;;;20.00;99.90;;;;;;5068364;28;20400;-75
2023/09/09 03:57:47;;;;;;;21.08;19.30;;;19.90;99.90;;;;;;5072554;28;20488;-75
2023/09/09 04:00:13;;;;;;;23.48;21.55;;;19.90;99.90;;;;;;5071492;28;20028;-75
2023/09/09 04:02:38;;;;;;;22.55;20.70;;;19.90;99.90;;;;;;5072138;28;20024;-76
2023/09/09 04:05:05;;;;;;;24.25;22.00;;;19.80;99.90;;;;;;5071450;28;20560;-75
2023/09/09 04:07:35;;;;;;;25.58;23.25;;;19.80;99.90;;;;;;5072096;28;20067;-75
2023/09/09 04:10:04;;;;;;;27.77;25.15;;;19.80;99.90;;;;;;5067416;28;20013;-75
2023/09/09 04:12:29;;;;;;;30.02;26.98;;;19.70;99.90;;;;;;5072027;28;20025;-75
2023/09/09 04:14:55;;;;;;;27.67;25.15;;;19.80;99.90;;;;;;5066604;28;20024;-75
2023/09/09 04:17:20;;;;;;;28.92;26.42;;;19.80;99.90;;;;;;5052450;28;20025;-75
2023/09/09 04:19:46;;;;;;;30.13;27.33;;;19.70;99.90;;;;;;5056477;28;20036;-76
2023/09/09 04:22:12;;;;;;;31.95;28.95;;;19.70;99.90;;;;;;5061708;28;20025;-76
2023/09/09 04:24:37;;;;;;;31.55;28.73;;;19.70;99.90;;;;;;5055623;28;20769;-75
2023/09/09 04:27:03;;;;;;;36.45;33.05;;;19.70;99.90;;;;;;5071796;28;20029;-75
2023/09/09 04:29:29;;;;;;;34.70;31.63;;;19.60;99.90;;;;;;5070426;28;20031;-76
2023/09/09 04:31:55;;;;;;;36.05;32.72;;;19.60;99.90;;;;;;5071775;28;20025;-75
2023/09/09 04:34:20;;;;;;;33.25;30.23;;;19.60;99.90;;;;;;5066490;28;20100;-75
2023/09/09 04:36:46;;;;;;;33.42;30.33;;;19.60;99.90;;;;;;5063159;28;20052;-75
2023/09/09 04:39:15;;;;;;;32.83;29.77;;;19.60;99.90;;;;;;5056716;28;20032;-75
2023/09/09 04:41:43;;;;;;;35.00;31.77;;;19.60;99.90;;;;;;5063164;28;20025;-76
2023/09/09 04:44:09;;;;;;;36.38;33.20;;;19.60;99.90;;;;;;5052857;28;20317;-75
2023/09/09 04:46:35;;;;;;;36.28;32.90;;;19.50;99.90;;;;;;5052107;28;20364;-75
2023/09/09 04:49:02;;;;;;;34.72;31.58;;;19.50;99.90;;;;;;5052326;28;20025;-76
2023/09/09 04:51:29;;;;;;;36.53;33.05;;;19.50;99.90;;;;;;5052455;28;20063;-75
2023/09/09 04:53:54;;;;;;;34.33;31.10;;;19.50;99.90;;;;;;5051430;28;20070;-76
2023/09/09 04:56:20;;;;;;;37.10;33.58;;;19.40;99.90;;;;;;5051695;28;20040;-76
2023/09/09 04:58:45;;;;;;;47.38;42.78;;;19.50;99.90;;;;;;5052830;28;20466;-76
2023/09/09 05:01:11;;;;;;;49.63;44.60;;;19.50;99.90;;;;;;5051942;28;20032;-76
2023/09/09 05:03:36;;;;;;;99.97;69.03;;;19.60;99.90;;;;;;5047960;28;20104;-76
2023/09/09 05:06:02;;;;;;;115.45;61.55;;;19.70;99.90;;;;;;5048273;28;20021;-76
2023/09/09 05:08:28;;;;;;;133.65;62.25;;;19.70;99.90;;;;;;5047904;28;20037;-76
2023/09/09 05:10:53;;;;;;;304.98;78.43;;;19.80;99.90;;;;;;5057050;28;20013;-76
2023/09/09 05:13:19;;;;;;;310.50;78.45;;;19.80;99.90;;;;;;5060352;28;20398;-76
2023/09/09 05:15:45;;;;;;;303.45;80.78;;;19.90;99.90;;;;;;5058651;28;20024;-76
2023/09/09 05:18:10;;;;;;;353.08;87.00;;;19.90;99.90;;;;;;5067793;28;20144;-77
2023/09/09 05:20:36;;;;;;;255.40;74.40;;;20.00;99.90;;;;;;5071093;28;20021;-76
2023/09/09 05:23:02;;;;;;;146.20;54.80;;;20.00;99.90;;;;;;5070075;28;20481;-76
2023/09/09 05:25:27;;;;;;;131.85;69.30;;;20.00;99.90;;;;;;5062250;28;20024;-77
2023/09/09 05:27:53;;;;;;;192.60;70.82;;;20.00;99.90;;;;;;5070607;28;20019;-77
2023/09/09 05:30:19;;;;;;;229.93;72.63;;;20.00;99.90;;;;;;5070492;28;20037;-76
2023/09/09 05:32:45;;;;;;;117.00;59.05;;;20.00;99.90;;;;;;5067041;28;20013;-76
2023/09/09 05:35:11;;;;;;;178.20;72.55;;;20.00;99.90;;;;;;5051159;28;20032;-76
2023/09/09 05:37:36;;;;;;;125.47;67.80;;;20.00;99.90;;;;;;5063677;28;20043;-75
2023/09/09 05:40:02;;;;;;;82.68;50.03;;;20.10;99.90;;;;;;5050721;28;20482;-76
2023/09/09 05:42:28;;;;;;;107.22;64.00;;;20.00;99.90;;;;;;5051179;28;20037;-76
2023/09/09 05:44:54;;;;;;;94.70;48.58;;;20.00;99.90;;;;;;5051217;28;20075;-75
2023/09/09 05:47:20;;;;;;;57.25;48.45;;;20.10;99.90;;;;;;5051303;28;20033;-75
2023/09/09 05:49:45;;;;;;;76.50;50.10;;;20.00;99.90;;;;;;5051133;28;20095;-76
2023/09/09 05:52:12;;;;;;;56.30;47.75;;;20.00;99.90;;;;;;5050331;28;20032;-76
2023/09/09 05:54:38;;;;;;;88.00;56.05;;;20.10;99.90;;;;;;5050179;28;20082;-75
2023/09/09 05:57:04;;;;;;;56.30;50.63;;;20.10;99.90;;;;;;5050795;28;20021;-76
2023/09/09 05:59:30;;;;;;;78.80;65.05;;;20.10;99.90;;;;;;5051029;28;20104;-76
2023/09/09 06:01:55;;;;;;;62.42;56.00;;;20.10;99.90;;;;;;5051253;28;20199;-76
2023/09/09 06:04:21;;;;;;;73.53;58.15;;;20.20;99.90;;;;;;5050220;28;20102;-76
2023/09/09 06:06:50;;;;;;;67.50;48.75;;;20.20;99.90;;;;;;5050789;28;20043;-76
2023/09/09 06:09:15;;;;;;;63.15;51.40;;;20.20;99.90;;;;;;5049678;28;20506;-76
2023/09/09 06:11:41;;;;;;;59.60;51.25;;;20.20;99.90;;;;;;5049686;28;20095;-76
2023/09/09 06:14:07;;;;;;;60.80;49.83;;;20.20;99.90;;;;;;5050299;28;20158;-76
2023/09/09 06:16:32;;;;;;;53.25;48.42;;;20.20;99.90;;;;;;5050785;28;20021;-76
2023/09/09 06:18:58;;;;;;;70.78;53.08;;;20.20;99.90;;;;;;5050198;28;20151;-76
2023/09/09 06:21:26;;;;;;;66.22;59.17;;;20.20;99.90;;;;;;5051187;28;20021;-76
2023/09/09 06:23:51;;;;;;;59.70;53.38;;;20.30;99.90;;;;;;5050617;28;20021;-76
2023/09/09 06:26:17;;;;;;;65.68;58.35;;;20.30;99.90;;;;;;5051032;28;20035;-76
2023/09/09 06:28:43;;;;;;;57.92;51.13;;;20.30;99.90;;;;;;5050971;28;20032;-76
2023/09/09 06:31:08;;;;;;;67.63;60.55;;;20.30;99.90;;;;;;5050744;28;20158;-76
2023/09/09 06:33:34;;;;;;;55.85;47.35;;;20.30;99.90;;;;;;5050154;28;20025;-76
2023/09/09 06:35:59;;;;;;;50.28;45.50;;;20.30;99.90;;;;;;5050953;28;20021;-77
2023/09/09 06:38:25;;;;;;;56.25;50.78;;;20.40;99.90;;;;;;5049907;28;20020;-77
2023/09/09 06:40:51;;;;;;;62.67;56.40;;;20.40;99.90;;;;;;5049310;28;20476;-77
2023/09/09 06:43:21;;;;;;;61.53;55.67;;;20.40;99.90;;;;;;5051157;28;20031;-78
2023/09/09 06:45:47;;;;;;;65.30;59.60;;;20.50;99.90;;;;;;5052746;28;20025;-77
2023/09/09 06:48:17;;;;;;;63.22;56.10;;;20.50;99.90;;;;;;5050980;28;20535;-78
2023/09/09 06:50:46;;;;;;;66.38;59.70;;;20.50;99.90;;;;;;5053251;28;20025;-78
2023/09/09 06:53:13;;;;;;;59.58;54.05;;;20.60;99.90;;;;;;5051400;28;20044;-77
2023/09/09 06:55:41;;;;;;;62.08;56.05;;;20.60;99.90;;;;;;5052730;28;20109;-77
2023/09/09 06:58:07;;;;;;;56.65;51.10;;;20.60;99.90;;;;;;5051273;28;20033;-75
2023/09/09 07:00:32;;;;;;;55.45;50.50;;;20.70;99.90;;;;;;5056291;28;20036;-75
2023/09/09 07:02:58;;;;;;;55.80;50.13;;;20.70;99.90;;;;;;5052218;28;20028;-74
2023/09/09 07:05:24;;;;;;;52.75;47.75;;;20.70;99.90;;;;;;5052225;28;20024;-74
2023/09/09 07:07:50;;;;;;;52.88;47.63;;;20.80;99.90;;;;;;5065480;28;20063;-74
2023/09/09 07:10:15;;;;;;;71.10;64.25;;;20.80;99.90;;;;;;5060740;28;20017;-75
2023/09/09 07:12:42;;;;;;;62.05;55.88;;;20.80;99.90;;;;;;5065255;28;20101;-75
2023/09/09 07:15:08;;;;;;;79.15;71.43;;;20.90;99.90;;;;;;5059105;28;20017;-75
2023/09/09 07:17:34;;;;;;;76.85;69.15;;;20.90;99.90;;;;;;5048930;28;20032;-75
2023/09/09 07:20:00;;;;;;;71.13;64.07;;;20.90;99.90;;;;;;5069162;28;20012;-75
2023/09/09 07:22:25;;;;;;;56.55;51.10;;;20.90;99.90;;;;;;5073562;28;20027;-75
2023/09/09 07:24:51;;;;;;;56.92;51.30;;;20.90;99.90;;;;;;5071631;28;20052;-75
2023/09/09 07:27:17;;;;;;;69.70;63.17;;;20.90;99.90;;;;;;5061012;28;20029;-75
2023/09/09 07:29:42;;;;;;;69.65;62.72;;;21.00;99.90;;;;;;5058807;28;20471;-75
2023/09/09 07:32:08;;;;;;;77.18;69.72;;;21.00;99.90;;;;;;5072554;28;20029;-75
2023/09/09 07:34:34;;;;;;;83.38;75.00;;;21.10;99.90;;;;;;5072324;28;20035;-75
2023/09/09 07:37:00;;;;;;;91.50;71.78;;;21.20;99.90;;;;;;5072835;28;20058;-76
2023/09/09 07:39:27;;;;;;;69.32;62.75;;;21.20;99.90;;;;;;5072595;28;20563;-75
2023/09/09 07:41:53;;;;;;;84.53;75.95;;;21.30;99.90;;;;;;5060230;28;20045;-75
2023/09/09 07:44:19;;;;;;;89.45;80.57;;;21.40;99.90;;;;;;5053187;28;20059;-75
2023/09/09 07:46:45;;;;;;;75.35;67.72;;;21.40;99.90;;;;;;5065449;28;20024;-75
2023/09/09 07:49:10;;;;;;;86.00;77.25;;;21.50;99.90;;;;;;5067312;28;20029;-76
2023/09/09 07:51:36;;;;;;;96.93;86.15;;;21.60;99.90;;;;;;5072753;28;20024;-74
2023/09/09 07:54:02;;;;;;;93.40;83.28;;;21.60;99.90;;;;;;5087135;28;20025;-75
2023/09/09 07:56:27;;;;;;;94.53;78.55;;;21.70;99.90;;;;;;5072854;28;20063;-75
2023/09/09 07:58:53;;;;;;;88.78;77.80;;;21.70;99.90;;;;;;5071999;28;20021;-75
2023/09/09 08:01:19;;;;;;;104.28;88.78;;;21.80;99.90;;;;;;5071917;28;20079;-75
2023/09/09 08:03:45;;;;;;;99.45;87.72;;;21.90;99.90;;;;;;5071925;28;20046;-74
2023/09/09 08:06:10;;;;;;;99.60;88.93;;;21.90;99.90;;;;;;5072353;28;20029;-75
2023/09/09 08:08:36;;;;;;;108.70;94.80;;;22.00;99.90;;;;;;5059871;28;20111;-74
2023/09/09 08:11:05;;;;;;;96.80;86.53;;;22.10;99.90;;;;;;5072258;28;20096;-75
2023/09/09 08:13:31;;;;;;;107.35;95.85;;;22.10;99.90;;;;;;5071538;28;20029;-74
2023/09/09 08:15:58;;;;;;;91.38;82.05;;;22.20;99.90;;;;;;5059055;28;20021;-75
2023/09/09 08:18:24;;;;;;;87.15;78.18;;;22.30;99.90;;;;;;5056477;28;20473;-75
2023/09/09 08:20:50;;;;;;;86.90;77.95;;;22.30;99.90;;;;;;5060087;28;20477;-75
2023/09/09 08:23:17;;;;;;;96.80;86.57;;;22.30;99.90;;;;;;5052467;28;20532;-74
2023/09/09 08:25:42;;;;;;;93.05;83.72;;;22.40;99.90;;;;;;5052564;28;20100;-73
2023/09/09 08:28:08;;;;;;;95.60;85.93;;;22.50;99.90;;;;;;5052334;28;20108;-73
2023/09/09 08:30:35;;;;;;;96.13;86.63;;;22.60;99.90;;;;;;5051694;28;20025;-74
2023/09/09 08:33:00;;;;;;;89.60;80.32;;;22.70;99.90;;;;;;5052908;28;20029;-73
2023/09/09 08:35:26;;;;;;;89.28;80.05;;;22.80;99.90;;;;;;5052527;28;20094;-74
2023/09/09 08:37:52;;;;;;;87.13;78.38;;;22.90;99.90;;;;;;5064344;28;20143;-74
2023/09/09 08:40:18;;;;;;;89.55;80.50;;;23.00;99.90;;;;;;5068584;28;20023;-74
2023/09/09 08:43:23;;;;;;;86.43;77.53;;;23.00;99.90;;;;;;5061215;28;20071;-73
2023/09/09 08:46:11;;;;;;;100.85;90.35;;;23.00;99.90;;;;;;5059416;28;20161;-72
2023/09/09 08:48:37;;;;;;;87.05;77.72;;;22.90;99.90;;;;;;5053972;28;20027;-73
2023/09/09 08:51:04;;;;;;;90.65;81.25;;;22.80;99.90;;;;;;5063580;28;20070;-73
2023/09/09 08:53:31;;;;;;;95.22;85.57;;;22.90;99.90;;;;;;5058557;28;20477;-73
2023/09/09 08:55:57;;;;;;;94.20;84.47;;;22.80;99.90;;;;;;5056063;28;20036;-73
2023/09/09 08:58:24;;;;;;;91.60;82.20;;;22.80;99.90;;;;;;5056132;28;20049;-73
2023/09/09 09:00:50;;;;;;;101.13;90.68;;;22.80;99.90;;;;;;5057078;28;20033;-73
2023/09/09 09:03:18;;;;;;;89.88;80.97;;;22.80;99.90;;;;;;5068816;28;20478;-72
2023/09/09 09:05:44;;;;;;;94.60;85.03;;;22.80;99.90;;;;;;5070396;28;20032;-73
2023/09/09 09:08:10;;;;;;;96.22;86.20;;;22.90;99.90;;;;;;5068052;28;20116;-73
2023/09/09 09:10:37;;;;;;;88.97;80.03;;;22.90;99.90;;;;;;5069024;28;20537;-73
2023/09/09 09:13:04;;;;;;;91.32;82.75;;;22.90;99.90;;;;;;5065107;28;20021;-73
2023/09/09 09:15:32;;;;;;;92.25;82.90;;;22.90;99.90;;;;;;5061496;28;20017;-73
2023/09/09 09:17:59;;;;;;;92.40;82.90;;;23.00;99.90;;;;;;5053130;28;20492;-73
2023/09/09 09:20:27;;;;;;;88.28;79.38;;;23.00;99.90;;;;;;5052819;28;20086;-73
2023/09/09 09:22:56;;;;;;;89.55;80.72;;;23.00;99.90;;;;;;5054683;28;20028;-73
2023/09/09 09:25:21;;;;;;;83.88;74.75;;;23.10;99.90;;;;;;5068295;28;20121;-74
2023/09/09 09:27:47;;;;;;;88.43;79.75;;;23.10;99.90;;;;;;5052314;28;20462;-73
2023/09/09 09:30:13;;;;;;;85.20;76.80;;;23.20;99.90;;;;;;5052559;28;20027;-73
2023/09/09 09:32:42;;;;;;;87.47;78.57;;;23.30;99.90;;;;;;5069689;28;20048;-73
2023/09/09 09:35:29;;;;;;;80.80;72.72;;;23.40;99.90;;;;;;5052792;28;20390;-73
2023/09/09 09:38:00;;;;;;;80.97;72.65;;;23.50;99.90;;;;;;5052088;28;20078;-72
2023/09/09 09:40:27;;;;;;;75.90;68.30;;;23.60;99.90;;;;;;5040134;28;20111;-73
2023/09/09 09:42:53;;;;;;;77.97;70.22;;;23.70;99.90;;;;;;5044358;28;20125;-73
2023/09/09 09:45:22;;;;;;;87.15;78.43;;;23.70;99.90;;;;;;5038283;28;20140;-74
2023/09/09 09:47:48;;;;;;;76.30;68.80;;;23.80;99.90;;;;;;5045942;28;20017;-74
2023/09/09 09:50:30;;;;;;;71.45;64.28;;;23.90;99.90;;;;;;5043764;28;20665;-75
2023/09/09 09:53:03;;;;;;;69.03;62.22;;;24.10;99.90;;;;;;5047613;28;20044;-73
2023/09/09 09:55:32;;;;;;;68.22;61.30;;;24.10;99.90;;;;;;5047360;28;20045;-72
2023/09/09 09:58:00;;;;;;;72.78;65.82;;;24.30;99.90;;;;;;5046744;28;20100;-72
2023/09/09 10:00:27;;;;;;;67.82;61.35;;;24.30;99.90;;;;;;5046204;28;20272;-72
2023/09/09 10:02:58;;;;;;;67.55;60.80;;;24.40;99.90;;;;;;5047116;28;20025;-73
2023/09/09 10:05:28;;;;;;;69.07;62.45;;;24.60;99.90;;;;;;5041579;28;20025;-73
2023/09/09 10:08:02;;;;;;;63.65;57.50;;;24.60;99.90;;;;;;5047333;28;20029;-72
2023/09/09 10:10:31;;;;;;;55.88;50.47;;;24.70;99.90;;;;;;5047458;28;20032;-72
2023/09/09 10:13:37;;;;;;;49.38;44.50;;;24.80;99.90;;;;;;5046362;28;20025;-73
2023/09/09 10:16:05;;;;;;;52.92;47.67;;;24.90;99.90;;;;;;5024054;28;20057;-73
2023/09/09 10:18:31;;;;;;;55.30;50.08;;;25.00;99.90;;;;;;5023923;28;20040;-73
2023/09/09 10:20:58;;;;;;;48.30;43.70;;;25.00;99.90;;;;;;5024144;28;20029;-73
2023/09/09 10:23:25;;;;;;;49.03;44.35;;;25.00;99.90;;;;;;5014923;28;20033;-73
2023/09/09 10:25:52;;;;;;;46.60;42.28;;;25.10;99.90;;;;;;5029496;28;20079;-73
2023/09/09 10:28:20;;;;;;;46.45;41.65;;;25.20;99.90;;;;;;5024737;28;20033;-72
2023/09/09 10:30:48;;;;;;;46.35;41.97;;;25.30;99.90;;;;;;5026309;28;20071;-72
2023/09/09 10:33:14;;;;;;;49.15;44.67;;;25.30;99.90;;;;;;5035935;28;20049;-72
2023/09/09 10:35:43;;;;;;;48.90;44.17;;;25.40;99.90;;;;;;5032492;28;20545;-72
2023/09/09 10:38:12;;;;;;;44.72;40.00;;;25.40;99.90;;;;;;5020538;28;20025;-73
2023/09/09 10:40:39;;;;;;;41.70;37.83;;;25.40;99.90;;;;;;5034442;28;20254;-73
2023/09/09 10:43:04;;;;;;;51.22;46.00;;;25.50;99.90;;;;;;5030379;28;20075;-73
2023/09/09 10:45:34;;;;;;;42.35;38.33;;;25.60;99.90;;;;;;5028886;28;20100;-73
2023/09/09 10:48:05;;;;;;;42.38;38.30;;;25.60;99.90;;;;;;5051274;28;20423;-73
2023/09/09 10:50:51;;;;;;;42.67;39.03;;;25.70;99.90;;;;;;5056955;28;20031;-73
2023/09/09 10:53:29;;;;;;;39.88;36.00;;;25.70;99.90;;;;;;5060467;28;20037;-72
2023/09/09 10:56:17;;;;;;;39.38;35.47;;;25.70;99.90;;;;;;5057460;28;20048;-74
2023/09/09 10:58:47;;;;;;;38.40;34.88;;;25.80;99.90;;;;;;5051422;28;20096;-73
2023/09/09 11:01:26;;;;;;;32.30;29.33;;;25.90;99.90;;;;;;5056084;28;20100;-74
2023/09/09 11:03:52;;;;;;;35.40;32.22;;;25.90;99.60;;;;;;5060519;28;20108;-74
2023/09/09 11:06:28;;;;;;;31.23;28.30;;;25.90;99.50;;;;;;5058018;28;20505;-74
2023/09/09 11:09:00;;;;;;;34.05;26.95;;;25.90;99.20;;;;;;5053293;28;20037;-74
2023/09/09 11:11:26;;;;;;;31.58;28.50;;;25.90;99.10;;;;;;5060746;28;20059;-75
2023/09/09 11:14:02;;;;;;;27.13;24.48;;;25.90;99.30;;;;;;5057322;28;20025;-75
2023/09/09 11:16:31;;;;;;;28.65;25.75;;;26.00;98.90;;;;;;5049809;28;20049;-74
2023/09/09 11:18:58;;;;;;;28.52;25.95;;;26.00;98.80;;;;;;5066501;28;20048;-75
2023/09/09 11:21:24;;;;;;;27.50;25.02;;;26.00;98.70;;;;;;5055071;28;20025;-74
2023/09/09 11:23:53;;;;;;;26.90;24.30;;;26.00;98.60;;;;;;5062677;28;20035;-74
2023/09/09 11:26:19;;;;;;;23.25;21.13;;;26.00;98.30;;;;;;5060752;28;20071;-74
2023/09/09 11:28:46;;;;;;;21.75;19.88;;;26.10;98.20;;;;;;5055721;28;20439;-75
2023/09/09 11:31:15;;;;;;;20.40;18.50;;;26.10;97.80;;;;;;5060846;28;20029;-75
2023/09/09 11:33:41;;;;;;;19.60;17.80;;;26.10;98.20;;;;;;5065349;28;20482;-75
2023/09/09 11:36:07;;;;;;;21.58;19.48;;;26.20;98.00;;;;;;5061362;28;20041;-75
2023/09/09 11:38:39;;;;;;;20.95;18.85;;;26.10;97.90;;;;;;5065214;28;20099;-75
2023/09/09 11:41:05;;;;;;;19.15;17.35;;;26.20;97.60;;;;;;5055073;28;20457;-75
2023/09/09 11:43:30;;;;;;;18.70;15.88;;;26.20;97.50;;;;;;5064543;28;20060;-75
2023/09/09 11:45:56;;;;;;;18.75;16.98;;;26.20;97.40;;;;;;5062734;28;20068;-75
2023/09/09 11:48:23;;;;;;;15.05;13.77;;;26.20;97.30;;;;;;5065625;28;20043;-75
2023/09/09 11:50:50;;;;;;;16.48;14.75;;;26.20;97.30;;;;;;5055290;28;20412;-75
2023/09/09 11:53:18;;;;;;;11.65;10.70;;;26.20;97.20;;;;;;5051548;28;20054;-75
2023/09/09 11:55:44;;;;;;;11.82;10.77;;;26.30;96.80;;;;;;5050284;28;20038;-77
2023/09/09 11:58:09;;;;;;;11.30;10.30;;;26.30;96.50;;;;;;5064692;28;20017;-78
2023/09/09 12:00:35;;;;;;;9.55;8.70;;;26.40;96.40;;;;;;5060176;28;20017;-76
2023/09/09 12:03:00;;;;;;;8.73;7.82;;;26.40;95.90;;;;;;5064373;28;20531;-77
2023/09/09 12:05:31;;;;;;;8.70;7.40;;;26.40;95.70;;;;;;5066146;28;20465;-76
2023/09/09 12:08:01;;;;;;;7.50;6.80;;;26.40;95.40;;;;;;5049793;28;20639;-77
2023/09/09 12:10:33;;;;;;;7.13;6.53;;;26.40;95.00;;;;;;5053001;28;20470;-78
2023/09/09 12:12:59;;;;;;;6.55;5.97;;;26.40;94.60;;;;;;5065031;28;20027;-77
2023/09/09 12:15:26;;;;;;;5.85;5.30;;;26.50;94.20;;;;;;5074721;28;20028;-77
2023/09/09 12:17:52;;;;;;;6.30;5.70;;;26.40;92.90;;;;;;5064881;28;20021;-77
2023/09/09 12:20:18;;;;;;;5.60;5.10;;;26.50;92.70;;;;;;5060733;28;20020;-77
2023/09/09 12:22:50;;;;;;;6.63;5.47;;;26.50;92.00;;;;;;5065222;28;20455;-80
2023/09/09 12:25:32;;;;;;;5.57;4.95;;;26.50;91.40;;;;;;5067334;28;20048;-78
2023/09/09 12:27:58;;;;;;;7.55;4.75;;;26.50;90.80;;;;;;5052454;28;20359;-78